sensor_id;sensor_type;location;lat;lon;timestamp;temperature;humidity
66710;DHT22;53624;0.000;0.000;2023-04-03T00:02:19;13.30;99.90
66710;DHT22;53624;0.000;0.000;2023-04-03T00:04:46;13.30;99.90
66710;DHT22;53624;0.000;0.000;2023-04-03T00:07:14;13.30;99.90
66710;DHT22;53624;0.000;0.000;2023-04-03T00:09:41;13.30;99.90
66710;DHT22;53624;0.000;0.000;2023-04-03T00:12:10;13.30;99.90
66710;DHT22;53624;0.000;0.000;2023-04-03T00:14:38;13.30;99.90
66710;DHT22;53624;0.000;0.000;2023-04-03T00:17:05;13.30;99.90
66710;DHT22;53624;0.000;0.000;2023-04-03T00:19:33;13.30;99.90
66710;DHT22;53624;0.000;0.000;2023-04-03T00:22:00;13.20;99.90
66710;DHT22;53624;0.000;0.000;2023-04-03T00:24:28;13.20;99.90
66710;DHT22;53624;0.000;0.000;2023-04-03T00:26:55;13.20;99.90
66710;DHT22;53624;0.000;0.000;2023-04-03T00:29:24;13.20;99.90
66710;DHT22;53624;0.000;0.000;2023-04-03T00:31:52;13.20;99.90
66710;DHT22;53624;0.000;0.000;2023-04-03T00:34:19;13.20;99.90
66710;DHT22;53624;0.000;0.000;2023-04-03T00:36:47;13.20;99.90
66710;DHT22;53624;0.000;0.000;2023-04-03T00:39:14;13.20;99.90
66710;DHT22;53624;0.000;0.000;2023-04-03T00:41:42;13.20;99.90
66710;DHT22;53624;0.000;0.000;2023-04-03T00:44:19;13.20;99.90
66710;DHT22;53624;0.000;0.000;2023-04-03T00:46:49;13.20;99.90
66710;DHT22;53624;0.000;0.000;2023-04-03T00:49:17;13.20;99.90
66710;DHT22;53624;0.000;0.000;2023-04-03T00:51:44;13.20;99.90
66710;DHT22;53624;0.000;0.000;2023-04-03T00:54:12;13.20;99.90
66710;DHT22;53624;0.000;0.000;2023-04-03T00:56:40;13.20;99.90
66710;DHT22;53624;0.000;0.000;2023-04-03T00:59:10;13.20;99.90
66710;DHT22;53624;0.000;0.000;2023-04-03T01:01:39;13.20;99.90
66710;DHT22;53624;0.000;0.000;2023-04-03T01:06:50;13.20;99.90
66710;DHT22;53624;0.000;0.000;2023-04-03T01:09:18;13.20;99.90
66710;DHT22;53624;0.000;0.000;2023-04-03T01:11:46;13.10;99.90
66710;DHT22;53624;0.000;0.000;2023-04-03T01:14:14;13.10;99.90
66710;DHT22;53624;0.000;0.000;2023-04-03T01:16:41;13.10;99.90
66710;DHT22;53624;0.000;0.000;2023-04-03T01:19:10;13.10;99.90
66710;DHT22;53624;0.000;0.000;2023-04-03T01:24:33;13.10;99.90
66710;DHT22;53624;0.000;0.000;2023-04-03T01:27:05;13.10;99.90
66710;DHT22;53624;0.000;0.000;2023-04-03T01:29:33;13.10;99.90
66710;DHT22;53624;0.000;0.000;2023-04-03T01:32:03;13.10;99.90
66710;DHT22;53624;0.000;0.000;2023-04-03T01:34:30;13.10;99.90
66710;DHT22;53624;0.000;0.000;2023-04-03T01:36:59;13.10;99.90
66710;DHT22;53624;0.000;0.000;2023-04-03T01:39:26;13.10;99.90
66710;DHT22;53624;0.000;0.000;2023-04-03T01:41:54;13.10;99.90
66710;DHT22;53624;0.000;0.000;2023-04-03T01:44:28;13.10;99.90
66710;DHT22;53624;0.000;0.000;2023-04-03T01:46:56;13.10;99.90
66710;DHT22;53624;0.000;0.000;2023-04-03T01:49:26;13.10;99.90
66710;DHT22;53624;0.000;0.000;2023-04-03T01:51:55;13.10;99.90
66710;DHT22;53624;0.000;0.000;2023-04-03T01:54:22;13.10;99.90
66710;DHT22;53624;0.000;0.000;2023-04-03T01:56:50;13.10;99.90
66710;DHT22;53624;0.000;0.000;2023-04-03T01:59:19;13.10;99.90
66710;DHT22;53624;0.000;0.000;2023-04-03T02:01:46;13.10;99.90
66710;DHT22;53624;0.000;0.000;2023-04-03T02:04:14;13.10;99.90
66710;DHT22;53624;0.000;0.000;2023-04-03T02:06:42;13.10;99.90
66710;DHT22;53624;0.000;0.000;2023-04-03T02:09:10;13.00;99.90
66710;DHT22;53624;0.000;0.000;2023-04-03T02:11:38;13.00;99.90
66710;DHT22;53624;0.000;0.000;2023-04-03T02:14:05;13.00;99.90
66710;DHT22;53624;0.000;0.000;2023-04-03T02:16:33;13.00;99.90
66710;DHT22;53624;0.000;0.000;2023-04-03T02:19:01;13.00;99.90
66710;DHT22;53624;0.000;0.000;2023-04-03T02:21:30;13.00;99.90
66710;DHT22;53624;0.000;0.000;2023-04-03T02:23:59;13.00;99.90
66710;DHT22;53624;0.000;0.000;2023-04-03T02:26:26;13.00;99.90
66710;DHT22;53624;0.000;0.000;2023-04-03T02:28:53;13.00;99.90
66710;DHT22;53624;0.000;0.000;2023-04-03T02:31:21;13.00;99.90
66710;DHT22;53624;0.000;0.000;2023-04-03T02:33:50;13.00;99.90
66710;DHT22;53624;0.000;0.000;2023-04-03T02:36:18;13.00;99.90
66710;DHT22;53624;0.000;0.000;2023-04-03T02:38:51;13.00;99.90
66710;DHT22;53624;0.000;0.000;2023-04-03T02:41:20;13.00;99.90
66710;DHT22;53624;0.000;0.000;2023-04-03T02:43:48;13.00;99.90
66710;DHT22;53624;0.000;0.000;2023-04-03T02:46:16;13.00;99.90
66710;DHT22;53624;0.000;0.000;2023-04-03T02:48:44;13.00;99.90
66710;DHT22;53624;0.000;0.000;2023-04-03T02:51:11;13.00;99.90
66710;DHT22;53624;0.000;0.000;2023-04-03T02:53:39;13.00;99.90
66710;DHT22;53624;0.000;0.000;2023-04-03T02:56:12;13.00;99.90
66710;DHT22;53624;0.000;0.000;2023-04-03T02:58:41;13.00;99.90
66710;DHT22;53624;0.000;0.000;2023-04-03T03:01:09;12.90;99.90
66710;DHT22;53624;0.000;0.000;2023-04-03T03:03:37;12.90;99.90
66710;DHT22;53624;0.000;0.000;2023-04-03T03:06:04;12.90;99.90
66710;DHT22;53624;0.000;0.000;2023-04-03T03:08:33;12.90;99.90
66710;DHT22;53624;0.000;0.000;2023-04-03T03:11:01;12.90;99.90
66710;DHT22;53624;0.000;0.000;2023-04-03T03:13:28;12.90;99.90
66710;DHT22;53624;0.000;0.000;2023-04-03T03:15:57;12.90;99.90
66710;DHT22;53624;0.000;0.000;2023-04-03T03:18:25;12.90;99.90
66710;DHT22;53624;0.000;0.000;2023-04-03T03:20:53;12.90;99.90
66710;DHT22;53624;0.000;0.000;2023-04-03T03:23:20;12.90;99.90
66710;DHT22;53624;0.000;0.000;2023-04-03T03:25:49;12.90;99.90
66710;DHT22;53624;0.000;0.000;2023-04-03T03:28:16;12.90;99.90
66710;DHT22;53624;0.000;0.000;2023-04-03T03:30:44;12.90;99.90
66710;DHT22;53624;0.000;0.000;2023-04-03T03:33:13;12.90;99.90
66710;DHT22;53624;0.000;0.000;2023-04-03T03:35:40;12.90;99.90
66710;DHT22;53624;0.000;0.000;2023-04-03T03:38:08;12.90;99.90
66710;DHT22;53624;0.000;0.000;2023-04-03T03:40:35;12.90;99.90
66710;DHT22;53624;0.000;0.000;2023-04-03T03:43:03;12.90;99.90
66710;DHT22;53624;0.000;0.000;2023-04-03T03:45:31;12.90;99.90
66710;DHT22;53624;0.000;0.000;2023-04-03T03:47:58;12.90;99.90
66710;DHT22;53624;0.000;0.000;2023-04-03T03:50:27;12.90;99.90
66710;DHT22;53624;0.000;0.000;2023-04-03T03:52:55;12.90;99.90
66710;DHT22;53624;0.000;0.000;2023-04-03T03:55:22;12.80;99.90
66710;DHT22;53624;0.000;0.000;2023-04-03T03:57:53;12.80;99.90
66710;DHT22;53624;0.000;0.000;2023-04-03T04:00:21;12.80;99.90
66710;DHT22;53624;0.000;0.000;2023-04-03T04:02:54;12.90;99.90
66710;DHT22;53624;0.000;0.000;2023-04-03T04:05:23;12.80;99.90
66710;DHT22;53624;0.000;0.000;2023-04-03T04:07:53;12.80;99.90
66710;DHT22;53624;0.000;0.000;2023-04-03T04:10:22;12.80;99.90
66710;DHT22;53624;0.000;0.000;2023-04-03T04:12:49;12.80;99.90
66710;DHT22;53624;0.000;0.000;2023-04-03T04:15:20;12.80;99.90
66710;DHT22;53624;0.000;0.000;2023-04-03T04:17:49;12.80;99.90
66710;DHT22;53624;0.000;0.000;2023-04-03T04:20:17;12.80;99.90
66710;DHT22;53624;0.000;0.000;2023-04-03T04:22:46;12.80;99.90
66710;DHT22;53624;0.000;0.000;2023-04-03T04:25:15;12.80;99.90
66710;DHT22;53624;0.000;0.000;2023-04-03T04:27:43;12.80;99.90
66710;DHT22;53624;0.000;0.000;2023-04-03T04:30:13;12.80;99.90
66710;DHT22;53624;0.000;0.000;2023-04-03T04:32:42;12.80;99.90
66710;DHT22;53624;0.000;0.000;2023-04-03T04:35:10;12.80;99.90
66710;DHT22;53624;0.000;0.000;2023-04-03T04:37:41;12.80;99.90
66710;DHT22;53624;0.000;0.000;2023-04-03T04:40:09;12.80;99.90
66710;DHT22;53624;0.000;0.000;2023-04-03T04:42:38;12.80;99.90
66710;DHT22;53624;0.000;0.000;2023-04-03T04:45:07;12.80;99.90
66710;DHT22;53624;0.000;0.000;2023-04-03T04:47:35;12.80;99.90
66710;DHT22;53624;0.000;0.000;2023-04-03T04:50:03;12.80;99.90
66710;DHT22;53624;0.000;0.000;2023-04-03T04:52:32;12.80;99.90
66710;DHT22;53624;0.000;0.000;2023-04-03T04:54:59;12.80;99.90
66710;DHT22;53624;0.000;0.000;2023-04-03T04:57:27;12.80;99.90
66710;DHT22;53624;0.000;0.000;2023-04-03T04:59:58;12.80;99.90
66710;DHT22;53624;0.000;0.000;2023-04-03T05:02:26;12.70;99.90
66710;DHT22;53624;0.000;0.000;2023-04-03T05:04:55;12.70;99.90
66710;DHT22;53624;0.000;0.000;2023-04-03T05:07:26;12.80;99.90
66710;DHT22;53624;0.000;0.000;2023-04-03T05:09:55;12.70;99.90
66710;DHT22;53624;0.000;0.000;2023-04-03T05:12:23;12.70;99.90
66710;DHT22;53624;0.000;0.000;2023-04-03T05:14:55;12.70;99.90
66710;DHT22;53624;0.000;0.000;2023-04-03T05:17:26;12.70;99.90
66710;DHT22;53624;0.000;0.000;2023-04-03T05:19:55;12.70;99.90
66710;DHT22;53624;0.000;0.000;2023-04-03T05:22:25;12.70;99.90
66710;DHT22;53624;0.000;0.000;2023-04-03T05:24:56;12.70;99.90
66710;DHT22;53624;0.000;0.000;2023-04-03T05:27:24;12.70;99.90
66710;DHT22;53624;0.000;0.000;2023-04-03T05:29:54;12.70;99.90
66710;DHT22;53624;0.000;0.000;2023-04-03T05:32:23;12.70;99.90
66710;DHT22;53624;0.000;0.000;2023-04-03T05:35:01;12.70;99.90
66710;DHT22;53624;0.000;0.000;2023-04-03T05:37:28;12.70;99.90
66710;DHT22;53624;0.000;0.000;2023-04-03T05:39:57;12.70;99.90
66710;DHT22;53624;0.000;0.000;2023-04-03T05:42:25;12.70;99.90
66710;DHT22;53624;0.000;0.000;2023-04-03T05:44:52;12.70;99.90
66710;DHT22;53624;0.000;0.000;2023-04-03T05:47:20;12.70;99.90
66710;DHT22;53624;0.000;0.000;2023-04-03T05:49:48;12.70;99.90
66710;DHT22;53624;0.000;0.000;2023-04-03T05:52:20;12.70;99.90
66710;DHT22;53624;0.000;0.000;2023-04-03T05:54:48;12.70;99.90
66710;DHT22;53624;0.000;0.000;2023-04-03T05:57:20;12.70;99.90
66710;DHT22;53624;0.000;0.000;2023-04-03T05:59:48;12.70;99.90
66710;DHT22;53624;0.000;0.000;2023-04-03T06:02:17;12.70;99.90
66710;DHT22;53624;0.000;0.000;2023-04-03T06:04:46;12.70;99.90
66710;DHT22;53624;0.000;0.000;2023-04-03T06:07:15;12.70;99.90
66710;DHT22;53624;0.000;0.000;2023-04-03T06:09:45;12.70;99.90
66710;DHT22;53624;0.000;0.000;2023-04-03T06:12:12;12.70;99.90
66710;DHT22;53624;0.000;0.000;2023-04-03T06:14:39;12.70;99.90
66710;DHT22;53624;0.000;0.000;2023-04-03T06:17:07;12.70;99.90
66710;DHT22;53624;0.000;0.000;2023-04-03T06:19:35;12.70;99.90
66710;DHT22;53624;0.000;0.000;2023-04-03T06:22:03;12.70;99.90
66710;DHT22;53624;0.000;0.000;2023-04-03T06:24:31;12.70;99.90
66710;DHT22;53624;0.000;0.000;2023-04-03T06:27:00;12.70;99.90
66710;DHT22;53624;0.000;0.000;2023-04-03T06:29:27;12.70;99.90
66710;DHT22;53624;0.000;0.000;2023-04-03T06:31:55;12.70;99.90
66710;DHT22;53624;0.000;0.000;2023-04-03T06:34:23;12.70;99.90
66710;DHT22;53624;0.000;0.000;2023-04-03T06:36:51;12.70;99.90
66710;DHT22;53624;0.000;0.000;2023-04-03T06:39:19;12.70;99.90
66710;DHT22;53624;0.000;0.000;2023-04-03T06:41:48;12.70;99.90
66710;DHT22;53624;0.000;0.000;2023-04-03T06:44:18;12.80;99.90
66710;DHT22;53624;0.000;0.000;2023-04-03T06:46:46;12.80;99.90
66710;DHT22;53624;0.000;0.000;2023-04-03T06:49:14;12.80;99.90
66710;DHT22;53624;0.000;0.000;2023-04-03T06:51:42;12.80;99.90
66710;DHT22;53624;0.000;0.000;2023-04-03T06:54:09;12.80;99.90
66710;DHT22;53624;0.000;0.000;2023-04-03T06:56:37;12.80;99.90
66710;DHT22;53624;0.000;0.000;2023-04-03T06:59:04;12.80;99.90
66710;DHT22;53624;0.000;0.000;2023-04-03T07:01:34;12.80;99.90
66710;DHT22;53624;0.000;0.000;2023-04-03T07:04:01;12.80;99.90
66710;DHT22;53624;0.000;0.000;2023-04-03T07:06:29;12.80;99.90
66710;DHT22;53624;0.000;0.000;2023-04-03T07:08:58;12.80;99.90
66710;DHT22;53624;0.000;0.000;2023-04-03T07:11:25;12.80;99.90
66710;DHT22;53624;0.000;0.000;2023-04-03T07:13:53;12.80;99.90
66710;DHT22;53624;0.000;0.000;2023-04-03T07:16:20;12.80;99.90
66710;DHT22;53624;0.000;0.000;2023-04-03T07:18:49;12.80;99.90
66710;DHT22;53624;0.000;0.000;2023-04-03T07:21:17;12.80;99.90
66710;DHT22;53624;0.000;0.000;2023-04-03T07:23:44;12.80;99.90
66710;DHT22;53624;0.000;0.000;2023-04-03T07:26:12;12.80;99.90
66710;DHT22;53624;0.000;0.000;2023-04-03T07:28:39;12.80;99.90
66710;DHT22;53624;0.000;0.000;2023-04-03T07:31:09;12.80;99.90
66710;DHT22;53624;0.000;0.000;2023-04-03T07:33:39;12.80;99.90
66710;DHT22;53624;0.000;0.000;2023-04-03T07:36:09;12.80;99.90
66710;DHT22;53624;0.000;0.000;2023-04-03T07:38:36;12.80;99.90
66710;DHT22;53624;0.000;0.000;2023-04-03T07:41:04;12.80;99.90
66710;DHT22;53624;0.000;0.000;2023-04-03T07:43:31;12.80;99.90
66710;DHT22;53624;0.000;0.000;2023-04-03T07:46:00;12.80;99.90
66710;DHT22;53624;0.000;0.000;2023-04-03T07:48:28;12.80;99.90
66710;DHT22;53624;0.000;0.000;2023-04-03T07:50:59;12.80;99.90
66710;DHT22;53624;0.000;0.000;2023-04-03T07:53:28;12.80;99.90
66710;DHT22;53624;0.000;0.000;2023-04-03T07:55:56;12.80;99.90
66710;DHT22;53624;0.000;0.000;2023-04-03T07:58:24;12.80;99.90
66710;DHT22;53624;0.000;0.000;2023-04-03T08:00:52;12.80;99.90
66710;DHT22;53624;0.000;0.000;2023-04-03T08:03:19;12.90;99.90
66710;DHT22;53624;0.000;0.000;2023-04-03T08:05:47;12.90;99.90
66710;DHT22;53624;0.000;0.000;2023-04-03T08:08:16;12.90;99.90
66710;DHT22;53624;0.000;0.000;2023-04-03T08:10:45;12.90;99.90
66710;DHT22;53624;0.000;0.000;2023-04-03T08:13:14;12.90;99.90
66710;DHT22;53624;0.000;0.000;2023-04-03T08:15:42;12.90;99.90
66710;DHT22;53624;0.000;0.000;2023-04-03T08:18:09;12.90;99.90
66710;DHT22;53624;0.000;0.000;2023-04-03T08:20:37;13.00;99.90
66710;DHT22;53624;0.000;0.000;2023-04-03T08:23:04;13.00;99.90
66710;DHT22;53624;0.000;0.000;2023-04-03T08:25:32;13.00;99.90
66710;DHT22;53624;0.000;0.000;2023-04-03T08:28:01;13.00;99.90
66710;DHT22;53624;0.000;0.000;2023-04-03T08:30:29;13.00;99.90
66710;DHT22;53624;0.000;0.000;2023-04-03T08:32:57;13.00;99.90
66710;DHT22;53624;0.000;0.000;2023-04-03T08:35:24;13.00;99.90
66710;DHT22;53624;0.000;0.000;2023-04-03T08:37:51;13.00;99.90
66710;DHT22;53624;0.000;0.000;2023-04-03T08:40:19;13.00;99.90
66710;DHT22;53624;0.000;0.000;2023-04-03T08:42:50;13.00;99.90
66710;DHT22;53624;0.000;0.000;2023-04-03T08:45:21;13.00;99.90
66710;DHT22;53624;0.000;0.000;2023-04-03T08:47:53;13.10;99.90
66710;DHT22;53624;0.000;0.000;2023-04-03T08:50:24;13.10;99.90
66710;DHT22;53624;0.000;0.000;2023-04-03T08:52:55;13.10;99.90
66710;DHT22;53624;0.000;0.000;2023-04-03T08:55:24;13.20;99.90
66710;DHT22;53624;0.000;0.000;2023-04-03T08:57:54;13.20;99.90
66710;DHT22;53624;0.000;0.000;2023-04-03T09:00:26;13.20;99.90
66710;DHT22;53624;0.000;0.000;2023-04-03T09:02:55;13.20;99.90
66710;DHT22;53624;0.000;0.000;2023-04-03T09:05:29;13.30;99.90
66710;DHT22;53624;0.000;0.000;2023-04-03T09:08:03;13.30;99.90
66710;DHT22;53624;0.000;0.000;2023-04-03T09:10:32;13.40;99.90
66710;DHT22;53624;0.000;0.000;2023-04-03T09:13:01;13.40;99.90
66710;DHT22;53624;0.000;0.000;2023-04-03T09:15:32;13.40;99.90
66710;DHT22;53624;0.000;0.000;2023-04-03T09:18:01;13.50;99.90
66710;DHT22;53624;0.000;0.000;2023-04-03T09:20:33;13.60;99.90
66710;DHT22;53624;0.000;0.000;2023-04-03T09:23:07;13.60;99.90
66710;DHT22;53624;0.000;0.000;2023-04-03T09:25:42;13.60;99.90
66710;DHT22;53624;0.000;0.000;2023-04-03T09:28:10;13.70;99.90
66710;DHT22;53624;0.000;0.000;2023-04-03T09:30:39;13.70;99.90
66710;DHT22;53624;0.000;0.000;2023-04-03T09:33:07;13.70;99.90
66710;DHT22;53624;0.000;0.000;2023-04-03T09:35:36;13.70;99.90
66710;DHT22;53624;0.000;0.000;2023-04-03T09:38:14;13.80;99.90
66710;DHT22;53624;0.000;0.000;2023-04-03T09:40:42;13.90;99.90
66710;DHT22;53624;0.000;0.000;2023-04-03T09:43:20;13.90;99.90
66710;DHT22;53624;0.000;0.000;2023-04-03T09:45:50;14.00;99.90
66710;DHT22;53624;0.000;0.000;2023-04-03T09:48:18;14.00;99.90
66710;DHT22;53624;0.000;0.000;2023-04-03T09:50:53;14.00;99.90
66710;DHT22;53624;0.000;0.000;2023-04-03T09:53:29;14.00;99.90
66710;DHT22;53624;0.000;0.000;2023-04-03T09:55:57;13.90;99.90
66710;DHT22;53624;0.000;0.000;2023-04-03T09:58:25;13.90;99.90
66710;DHT22;53624;0.000;0.000;2023-04-03T10:00:55;13.90;99.90
66710;DHT22;53624;0.000;0.000;2023-04-03T10:03:24;13.90;99.90
66710;DHT22;53624;0.000;0.000;2023-04-03T10:05:52;13.90;99.90
66710;DHT22;53624;0.000;0.000;2023-04-03T10:08:23;13.90;99.90
66710;DHT22;53624;0.000;0.000;2023-04-03T10:11:11;13.90;99.90
66710;DHT22;53624;0.000;0.000;2023-04-03T10:13:52;14.00;99.90
66710;DHT22;53624;0.000;0.000;2023-04-03T10:16:23;14.00;99.90
66710;DHT22;53624;0.000;0.000;2023-04-03T10:18:56;14.10;99.90
66710;DHT22;53624;0.000;0.000;2023-04-03T10:21:29;14.10;99.90
66710;DHT22;53624;0.000;0.000;2023-04-03T10:24:01;14.10;99.90
66710;DHT22;53624;0.000;0.000;2023-04-03T10:26:32;14.00;99.90
66710;DHT22;53624;0.000;0.000;2023-04-03T10:29:06;14.00;99.90
66710;DHT22;53624;0.000;0.000;2023-04-03T10:31:40;14.10;99.90
66710;DHT22;53624;0.000;0.000;2023-04-03T10:34:10;14.10;99.90
66710;DHT22;53624;0.000;0.000;2023-04-03T10:36:44;14.20;99.90
66710;DHT22;53624;0.000;0.000;2023-04-03T10:39:16;14.30;99.90
66710;DHT22;53624;0.000;0.000;2023-04-03T10:41:47;14.30;99.90
66710;DHT22;53624;0.000;0.000;2023-04-03T10:44:20;14.40;99.90
66710;DHT22;53624;0.000;0.000;2023-04-03T10:46:50;14.50;99.90
66710;DHT22;53624;0.000;0.000;2023-04-03T10:49:22;14.60;99.90
66710;DHT22;53624;0.000;0.000;2023-04-03T10:51:55;14.60;99.90
66710;DHT22;53624;0.000;0.000;2023-04-03T10:54:27;14.70;99.90
66710;DHT22;53624;0.000;0.000;2023-04-03T10:56:57;14.70;99.90
66710;DHT22;53624;0.000;0.000;2023-04-03T10:59:28;14.70;99.90
66710;DHT22;53624;0.000;0.000;2023-04-03T11:02:01;14.70;99.90
66710;DHT22;53624;0.000;0.000;2023-04-03T11:04:33;14.70;99.90
66710;DHT22;53624;0.000;0.000;2023-04-03T11:07:02;14.70;99.90
66710;DHT22;53624;0.000;0.000;2023-04-03T11:09:32;14.70;99.90
66710;DHT22;53624;0.000;0.000;2023-04-03T11:12:04;14.70;99.90
66710;DHT22;53624;0.000;0.000;2023-04-03T11:14:32;14.60;99.90
66710;DHT22;53624;0.000;0.000;2023-04-03T11:17:08;14.70;99.90
66710;DHT22;53624;0.000;0.000;2023-04-03T11:19:39;14.70;99.90
66710;DHT22;53624;0.000;0.000;2023-04-03T11:22:11;14.70;99.90
66710;DHT22;53624;0.000;0.000;2023-04-03T11:24:42;14.70;99.90
66710;DHT22;53624;0.000;0.000;2023-04-03T11:27:11;14.70;99.90
66710;DHT22;53624;0.000;0.000;2023-04-03T11:29:42;14.70;99.90
66710;DHT22;53624;0.000;0.000;2023-04-03T11:32:17;14.70;99.90
66710;DHT22;53624;0.000;0.000;2023-04-03T11:34:48;14.70;99.90
66710;DHT22;53624;0.000;0.000;2023-04-03T11:37:17;14.70;99.90
66710;DHT22;53624;0.000;0.000;2023-04-03T11:39:50;14.70;99.90
66710;DHT22;53624;0.000;0.000;2023-04-03T11:42:24;14.70;99.90
66710;DHT22;53624;0.000;0.000;2023-04-03T11:44:53;14.60;99.90
66710;DHT22;53624;0.000;0.000;2023-04-03T11:47:47;14.70;99.90
66710;DHT22;53624;0.000;0.000;2023-04-03T11:53:01;14.80;99.90
66710;DHT22;53624;0.000;0.000;2023-04-03T11:58:24;14.90;99.90
66710;DHT22;53624;0.000;0.000;2023-04-03T12:01:04;15.10;99.90
66710;DHT22;53624;0.000;0.000;2023-04-03T12:09:25;15.30;99.90
66710;DHT22;53624;0.000;0.000;2023-04-03T12:11:54;15.40;99.90
66710;DHT22;53624;0.000;0.000;2023-04-03T12:14:22;15.50;99.90
66710;DHT22;53624;0.000;0.000;2023-04-03T12:16:51;15.50;99.90
66710;DHT22;53624;0.000;0.000;2023-04-03T12:19:33;15.50;99.90
66710;DHT22;53624;0.000;0.000;2023-04-03T12:22:05;15.50;99.90
66710;DHT22;53624;0.000;0.000;2023-04-03T12:24:35;15.50;99.90
66710;DHT22;53624;0.000;0.000;2023-04-03T12:27:09;15.50;99.90
66710;DHT22;53624;0.000;0.000;2023-04-03T12:29:37;15.50;99.90
66710;DHT22;53624;0.000;0.000;2023-04-03T12:32:09;15.50;99.90
66710;DHT22;53624;0.000;0.000;2023-04-03T12:34:43;15.50;99.90
66710;DHT22;53624;0.000;0.000;2023-04-03T12:37:20;15.50;99.90
66710;DHT22;53624;0.000;0.000;2023-04-03T12:39:54;15.50;99.90
66710;DHT22;53624;0.000;0.000;2023-04-03T12:42:29;15.50;99.90
66710;DHT22;53624;0.000;0.000;2023-04-03T12:45:00;15.60;99.90
66710;DHT22;53624;0.000;0.000;2023-04-03T12:47:31;15.60;99.90
66710;DHT22;53624;0.000;0.000;2023-04-03T12:50:02;15.60;99.90
66710;DHT22;53624;0.000;0.000;2023-04-03T12:52:33;15.60;99.90
66710;DHT22;53624;0.000;0.000;2023-04-03T12:55:04;15.50;99.90
66710;DHT22;53624;0.000;0.000;2023-04-03T12:57:36;15.40;99.90
66710;DHT22;53624;0.000;0.000;2023-04-03T13:00:18;15.50;99.90
66710;DHT22;53624;0.000;0.000;2023-04-03T13:02:46;15.50;99.90
66710;DHT22;53624;0.000;0.000;2023-04-03T13:05:14;15.50;99.90
66710;DHT22;53624;0.000;0.000;2023-04-03T13:07:43;15.40;99.90
66710;DHT22;53624;0.000;0.000;2023-04-03T13:10:15;15.50;99.90
66710;DHT22;53624;0.000;0.000;2023-04-03T13:12:47;15.50;99.90
66710;DHT22;53624;0.000;0.000;2023-04-03T13:15:16;15.60;99.90
66710;DHT22;53624;0.000;0.000;2023-04-03T13:17:44;15.60;99.70
66710;DHT22;53624;0.000;0.000;2023-04-03T13:20:13;15.60;99.70
66710;DHT22;53624;0.000;0.000;2023-04-03T13:22:44;15.70;99.60
66710;DHT22;53624;0.000;0.000;2023-04-03T13:25:15;15.70;99.60
66710;DHT22;53624;0.000;0.000;2023-04-03T13:27:43;15.80;99.60
66710;DHT22;53624;0.000;0.000;2023-04-03T13:30:21;15.90;99.40
66710;DHT22;53624;0.000;0.000;2023-04-03T13:32:50;16.00;99.10
66710;DHT22;53624;0.000;0.000;2023-04-03T13:35:28;16.10;99.10
66710;DHT22;53624;0.000;0.000;2023-04-03T13:37:56;16.10;99.00
66710;DHT22;53624;0.000;0.000;2023-04-03T13:40:26;16.10;98.90
66710;DHT22;53624;0.000;0.000;2023-04-03T13:43:04;16.10;98.80
66710;DHT22;53624;0.000;0.000;2023-04-03T13:45:32;16.20;98.70
66710;DHT22;53624;0.000;0.000;2023-04-03T13:48:14;16.20;98.70
66710;DHT22;53624;0.000;0.000;2023-04-03T13:50:50;16.20;98.90
66710;DHT22;53624;0.000;0.000;2023-04-03T13:53:18;16.30;98.60
66710;DHT22;53624;0.000;0.000;2023-04-03T13:55:55;16.40;98.50
66710;DHT22;53624;0.000;0.000;2023-04-03T13:58:23;16.40;98.50
66710;DHT22;53624;0.000;0.000;2023-04-03T14:00:52;16.40;98.60
66710;DHT22;53624;0.000;0.000;2023-04-03T14:03:20;16.40;98.50
66710;DHT22;53624;0.000;0.000;2023-04-03T14:05:48;16.50;98.50
66710;DHT22;53624;0.000;0.000;2023-04-03T14:08:15;16.50;98.30
66710;DHT22;53624;0.000;0.000;2023-04-03T14:10:43;16.50;98.50
66710;DHT22;53624;0.000;0.000;2023-04-03T14:13:13;16.50;98.20
66710;DHT22;53624;0.000;0.000;2023-04-03T14:15:40;16.60;98.20
66710;DHT22;53624;0.000;0.000;2023-04-03T14:18:10;16.60;98.00
66710;DHT22;53624;0.000;0.000;2023-04-03T14:20:38;16.60;97.90
66710;DHT22;53624;0.000;0.000;2023-04-03T14:23:06;16.60;98.00
66710;DHT22;53624;0.000;0.000;2023-04-03T14:25:34;16.60;98.00
66710;DHT22;53624;0.000;0.000;2023-04-03T14:28:06;16.60;98.00
66710;DHT22;53624;0.000;0.000;2023-04-03T14:30:41;16.50;98.10
66710;DHT22;53624;0.000;0.000;2023-04-03T14:33:09;16.50;98.10
66710;DHT22;53624;0.000;0.000;2023-04-03T14:35:37;16.60;98.10
66710;DHT22;53624;0.000;0.000;2023-04-03T14:38:05;16.60;97.90
66710;DHT22;53624;0.000;0.000;2023-04-03T14:40:33;16.60;97.90
66710;DHT22;53624;0.000;0.000;2023-04-03T14:43:00;16.60;97.90
66710;DHT22;53624;0.000;0.000;2023-04-03T14:45:27;16.60;97.90
66710;DHT22;53624;0.000;0.000;2023-04-03T14:47:56;16.60;97.80
66710;DHT22;53624;0.000;0.000;2023-04-03T14:50:25;16.60;97.70
66710;DHT22;53624;0.000;0.000;2023-04-03T14:52:55;16.60;97.80
66710;DHT22;53624;0.000;0.000;2023-04-03T14:55:23;16.60;98.00
66710;DHT22;53624;0.000;0.000;2023-04-03T14:57:51;16.60;97.90
66710;DHT22;53624;0.000;0.000;2023-04-03T15:00:20;16.70;97.80
66710;DHT22;53624;0.000;0.000;2023-04-03T15:02:48;16.60;97.90
66710;DHT22;53624;0.000;0.000;2023-04-03T15:05:17;16.60;97.90
66710;DHT22;53624;0.000;0.000;2023-04-03T15:07:46;16.70;97.80
66710;DHT22;53624;0.000;0.000;2023-04-03T15:10:16;16.70;97.80
66710;DHT22;53624;0.000;0.000;2023-04-03T15:12:44;16.70;98.10
66710;DHT22;53624;0.000;0.000;2023-04-03T15:15:12;16.80;97.80
66710;DHT22;53624;0.000;0.000;2023-04-03T15:17:40;16.70;97.70
66710;DHT22;53624;0.000;0.000;2023-04-03T15:20:11;16.70;97.80
66710;DHT22;53624;0.000;0.000;2023-04-03T15:22:40;16.60;97.30
66710;DHT22;53624;0.000;0.000;2023-04-03T15:25:08;16.50;97.20
66710;DHT22;53624;0.000;0.000;2023-04-03T15:27:36;16.60;97.10
66710;DHT22;53624;0.000;0.000;2023-04-03T15:30:04;16.60;97.20
66710;DHT22;53624;0.000;0.000;2023-04-03T15:32:32;16.60;97.10
66710;DHT22;53624;0.000;0.000;2023-04-03T15:35:01;16.60;97.20
66710;DHT22;53624;0.000;0.000;2023-04-03T15:37:29;16.60;97.00
66710;DHT22;53624;0.000;0.000;2023-04-03T15:39:57;16.50;95.60
66710;DHT22;53624;0.000;0.000;2023-04-03T15:42:25;16.40;95.50
66710;DHT22;53624;0.000;0.000;2023-04-03T15:44:52;16.40;95.10
66710;DHT22;53624;0.000;0.000;2023-04-03T15:47:20;16.30;94.90
66710;DHT22;53624;0.000;0.000;2023-04-03T15:49:47;16.30;95.20
66710;DHT22;53624;0.000;0.000;2023-04-03T15:52:15;16.30;95.50
66710;DHT22;53624;0.000;0.000;2023-04-03T15:54:43;16.30;95.40
66710;DHT22;53624;0.000;0.000;2023-04-03T15:57:12;16.30;95.40
66710;DHT22;53624;0.000;0.000;2023-04-03T15:59:39;16.20;95.60
66710;DHT22;53624;0.000;0.000;2023-04-03T16:02:07;16.30;95.70
66710;DHT22;53624;0.000;0.000;2023-04-03T16:04:35;16.20;95.70
66710;DHT22;53624;0.000;0.000;2023-04-03T16:07:03;16.20;95.70
66710;DHT22;53624;0.000;0.000;2023-04-03T16:09:31;16.10;95.50
66710;DHT22;53624;0.000;0.000;2023-04-03T16:11:58;16.10;95.40
66710;DHT22;53624;0.000;0.000;2023-04-03T16:14:28;16.10;95.70
66710;DHT22;53624;0.000;0.000;2023-04-03T16:16:56;16.10;95.70